sensor_id;sensor_type;location;lat;lon;timestamp;P1;durP1;ratioP1;P2;durP2;ratioP2
61038;SDS011;46919;45.816;3.104;2022-07-23T00:00:26;11.13;;;8.93;;
61038;SDS011;46919;45.816;3.104;2022-07-23T00:02:52;13.20;;;8.85;;
61038;SDS011;46919;45.816;3.104;2022-07-23T00:05:17;10.98;;;7.90;;
61038;SDS011;46919;45.816;3.104;2022-07-23T00:07:43;10.18;;;8.20;;
61038;SDS011;46919;45.816;3.104;2022-07-23T00:10:08;14.15;;;7.65;;
61038;SDS011;46919;45.816;3.104;2022-07-23T00:12:34;11.32;;;7.70;;
61038;SDS011;46919;45.816;3.104;2022-07-23T00:15:00;13.07;;;7.40;;
61038;SDS011;46919;45.816;3.104;2022-07-23T00:17:27;14.93;;;6.72;;
61038;SDS011;46919;45.816;3.104;2022-07-23T00:19:52;12.63;;;7.38;;
61038;SDS011;46919;45.816;3.104;2022-07-23T00:22:18;15.40;;;7.00;;
61038;SDS011;46919;45.816;3.104;2022-07-23T00:24:44;15.32;;;6.53;;
61038;SDS011;46919;45.816;3.104;2022-07-23T00:27:09;14.00;;;6.57;;
61038;SDS011;46919;45.816;3.104;2022-07-23T00:29:35;14.52;;;6.45;;
61038;SDS011;46919;45.816;3.104;2022-07-23T00:32:01;16.15;;;6.50;;
61038;SDS011;46919;45.816;3.104;2022-07-23T00:34:27;10.40;;;5.75;;
61038;SDS011;46919;45.816;3.104;2022-07-23T00:36:52;12.02;;;6.03;;
61038;SDS011;46919;45.816;3.104;2022-07-23T00:39:19;13.57;;;5.95;;
61038;SDS011;46919;45.816;3.104;2022-07-23T00:41:46;9.98;;;5.50;;
61038;SDS011;46919;45.816;3.104;2022-07-23T00:44:18;12.07;;;5.22;;
61038;SDS011;46919;45.816;3.104;2022-07-23T00:46:53;13.90;;;5.40;;
61038;SDS011;46919;45.816;3.104;2022-07-23T00:49:21;12.68;;;5.25;;
61038;SDS011;46919;45.816;3.104;2022-07-23T00:51:49;8.82;;;5.30;;
61038;SDS011;46919;45.816;3.104;2022-07-23T00:54:15;11.02;;;5.40;;
61038;SDS011;46919;45.816;3.104;2022-07-23T00:56:43;9.38;;;5.10;;
61038;SDS011;46919;45.816;3.104;2022-07-23T00:59:09;12.63;;;5.15;;
61038;SDS011;46919;45.816;3.104;2022-07-23T01:01:35;8.95;;;4.82;;
61038;SDS011;46919;45.816;3.104;2022-07-23T01:04:01;11.75;;;5.05;;
61038;SDS011;46919;45.816;3.104;2022-07-23T01:06:26;8.07;;;4.65;;
61038;SDS011;46919;45.816;3.104;2022-07-23T01:08:53;7.10;;;4.47;;
61038;SDS011;46919;45.816;3.104;2022-07-23T01:11:19;12.25;;;4.60;;
61038;SDS011;46919;45.816;3.104;2022-07-23T01:13:46;7.15;;;4.50;;
61038;SDS011;46919;45.816;3.104;2022-07-23T01:16:12;9.35;;;4.60;;
61038;SDS011;46919;45.816;3.104;2022-07-23T01:18:37;9.45;;;4.15;;
61038;SDS011;46919;45.816;3.104;2022-07-23T01:21:03;7.72;;;4.15;;
61038;SDS011;46919;45.816;3.104;2022-07-23T01:23:28;5.93;;;3.67;;
61038;SDS011;46919;45.816;3.104;2022-07-23T01:25:54;7.80;;;3.65;;
61038;SDS011;46919;45.816;3.104;2022-07-23T01:28:21;6.93;;;3.40;;
61038;SDS011;46919;45.816;3.104;2022-07-23T01:30:46;6.68;;;3.83;;
61038;SDS011;46919;45.816;3.104;2022-07-23T01:33:12;4.72;;;3.47;;
61038;SDS011;46919;45.816;3.104;2022-07-23T01:35:39;4.88;;;3.38;;
61038;SDS011;46919;45.816;3.104;2022-07-23T01:38:05;5.70;;;3.17;;
61038;SDS011;46919;45.816;3.104;2022-07-23T01:40:30;4.85;;;3.30;;
61038;SDS011;46919;45.816;3.104;2022-07-23T01:42:56;4.60;;;2.80;;
61038;SDS011;46919;45.816;3.104;2022-07-23T01:45:21;2.63;;;2.42;;
61038;SDS011;46919;45.816;3.104;2022-07-23T01:47:47;4.05;;;2.95;;
61038;SDS011;46919;45.816;3.104;2022-07-23T01:50:13;9.68;;;3.80;;
61038;SDS011;46919;45.816;3.104;2022-07-23T01:52:38;6.40;;;3.80;;
61038;SDS011;46919;45.816;3.104;2022-07-23T01:55:04;7.13;;;3.55;;
61038;SDS011;46919;45.816;3.104;2022-07-23T01:57:31;10.82;;;4.15;;
61038;SDS011;46919;45.816;3.104;2022-07-23T01:59:56;7.50;;;3.67;;
61038;SDS011;46919;45.816;3.104;2022-07-23T02:02:22;7.07;;;3.78;;
61038;SDS011;46919;45.816;3.104;2022-07-23T02:04:47;4.72;;;3.80;;
61038;SDS011;46919;45.816;3.104;2022-07-23T02:07:13;6.97;;;3.83;;
61038;SDS011;46919;45.816;3.104;2022-07-23T02:09:38;7.10;;;3.45;;
61038;SDS011;46919;45.816;3.104;2022-07-23T02:12:04;7.75;;;3.90;;
61038;SDS011;46919;45.816;3.104;2022-07-23T02:14:29;7.10;;;3.85;;
61038;SDS011;46919;45.816;3.104;2022-07-23T02:16:55;5.13;;;4.00;;
61038;SDS011;46919;45.816;3.104;2022-07-23T02:19:21;7.45;;;4.32;;
61038;SDS011;46919;45.816;3.104;2022-07-23T02:21:46;5.65;;;4.03;;
61038;SDS011;46919;45.816;3.104;2022-07-23T02:24:11;6.03;;;4.25;;
61038;SDS011;46919;45.816;3.104;2022-07-23T02:26:37;5.10;;;3.97;;
61038;SDS011;46919;45.816;3.104;2022-07-23T02:29:02;8.30;;;4.20;;
61038;SDS011;46919;45.816;3.104;2022-07-23T02:31:29;7.03;;;4.03;;
61038;SDS011;46919;45.816;3.104;2022-07-23T02:33:55;5.30;;;3.85;;
61038;SDS011;46919;45.816;3.104;2022-07-23T02:36:21;7.53;;;4.35;;
61038;SDS011;46919;45.816;3.104;2022-07-23T02:38:47;6.07;;;3.67;;
61038;SDS011;46919;45.816;3.104;2022-07-23T02:41:12;8.32;;;3.85;;
61038;SDS011;46919;45.816;3.104;2022-07-23T02:43:38;7.25;;;3.70;;
61038;SDS011;46919;45.816;3.104;2022-07-23T02:46:03;6.55;;;3.67;;
61038;SDS011;46919;45.816;3.104;2022-07-23T02:48:29;10.32;;;4.15;;
61038;SDS011;46919;45.816;3.104;2022-07-23T02:50:55;7.68;;;4.30;;
61038;SDS011;46919;45.816;3.104;2022-07-23T02:53:21;7.43;;;4.13;;
61038;SDS011;46919;45.816;3.104;2022-07-23T02:55:47;6.72;;;4.30;;
61038;SDS011;46919;45.816;3.104;2022-07-23T02:58:13;5.65;;;3.67;;
61038;SDS011;46919;45.816;3.104;2022-07-23T03:00:38;6.50;;;4.18;;
61038;SDS011;46919;45.816;3.104;2022-07-23T03:03:04;8.23;;;4.40;;
61038;SDS011;46919;45.816;3.104;2022-07-23T03:05:29;6.80;;;4.35;;
61038;SDS011;46919;45.816;3.104;2022-07-23T03:07:54;5.88;;;4.30;;
61038;SDS011;46919;45.816;3.104;2022-07-23T03:10:20;8.05;;;4.18;;
61038;SDS011;46919;45.816;3.104;2022-07-23T03:12:45;6.78;;;3.97;;
61038;SDS011;46919;45.816;3.104;2022-07-23T03:15:11;7.70;;;4.28;;
61038;SDS011;46919;45.816;3.104;2022-07-23T03:17:36;5.43;;;3.97;;
61038;SDS011;46919;45.816;3.104;2022-07-23T03:20:02;8.82;;;4.03;;
61038;SDS011;46919;45.816;3.104;2022-07-23T03:22:27;6.68;;;4.05;;
61038;SDS011;46919;45.816;3.104;2022-07-23T03:24:53;8.70;;;4.18;;
61038;SDS011;46919;45.816;3.104;2022-07-23T03:27:18;9.63;;;4.03;;
61038;SDS011;46919;45.816;3.104;2022-07-23T03:29:44;7.00;;;4.07;;
61038;SDS011;46919;45.816;3.104;2022-07-23T03:32:10;6.05;;;3.83;;
61038;SDS011;46919;45.816;3.104;2022-07-23T03:34:35;6.65;;;4.55;;
61038;SDS011;46919;45.816;3.104;2022-07-23T03:37:01;6.22;;;4.10;;
61038;SDS011;46919;45.816;3.104;2022-07-23T03:39:26;8.05;;;3.90;;
61038;SDS011;46919;45.816;3.104;2022-07-23T03:41:52;7.25;;;4.80;;
61038;SDS011;46919;45.816;3.104;2022-07-23T03:44:17;6.53;;;4.55;;
61038;SDS011;46919;45.816;3.104;2022-07-23T03:46:43;10.05;;;4.53;;
61038;SDS011;46919;45.816;3.104;2022-07-23T03:49:08;6.50;;;4.47;;
61038;SDS011;46919;45.816;3.104;2022-07-23T03:51:34;6.65;;;4.75;;
61038;SDS011;46919;45.816;3.104;2022-07-23T03:53:59;7.43;;;4.50;;
61038;SDS011;46919;45.816;3.104;2022-07-23T03:56:25;6.53;;;4.63;;
61038;SDS011;46919;45.816;3.104;2022-07-23T03:58:51;9.68;;;4.50;;
61038;SDS011;46919;45.816;3.104;2022-07-23T04:01:17;8.27;;;4.50;;
61038;SDS011;46919;45.816;3.104;2022-07-23T04:03:42;7.00;;;4.88;;
61038;SDS011;46919;45.816;3.104;2022-07-23T04:06:07;7.35;;;4.05;;
61038;SDS011;46919;45.816;3.104;2022-07-23T04:08:33;8.77;;;4.32;;
61038;SDS011;46919;45.816;3.104;2022-07-23T04:10:58;8.70;;;4.50;;
61038;SDS011;46919;45.816;3.104;2022-07-23T04:13:24;6.75;;;4.30;;
61038;SDS011;46919;45.816;3.104;2022-07-23T04:15:49;7.70;;;4.30;;
61038;SDS011;46919;45.816;3.104;2022-07-23T04:18:15;7.80;;;4.45;;
61038;SDS011;46919;45.816;3.104;2022-07-23T04:20:42;5.15;;;4.07;;
61038;SDS011;46919;45.816;3.104;2022-07-23T04:23:08;6.97;;;4.18;;
61038;SDS011;46919;45.816;3.104;2022-07-23T04:25:34;8.50;;;4.30;;
61038;SDS011;46919;45.816;3.104;2022-07-23T04:28:00;7.90;;;4.53;;
61038;SDS011;46919;45.816;3.104;2022-07-23T04:30:25;8.77;;;4.47;;
61038;SDS011;46919;45.816;3.104;2022-07-23T04:32:51;5.55;;;4.32;;
61038;SDS011;46919;45.816;3.104;2022-07-23T04:35:17;4.63;;;4.18;;
61038;SDS011;46919;45.816;3.104;2022-07-23T04:37:42;8.57;;;4.07;;
61038;SDS011;46919;45.816;3.104;2022-07-23T04:40:07;9.93;;;5.00;;
61038;SDS011;46919;45.816;3.104;2022-07-23T04:42:33;9.40;;;4.90;;
61038;SDS011;46919;45.816;3.104;2022-07-23T04:44:59;10.13;;;4.97;;
61038;SDS011;46919;45.816;3.104;2022-07-23T04:47:24;10.80;;;5.05;;
61038;SDS011;46919;45.816;3.104;2022-07-23T04:49:50;7.38;;;5.75;;
61038;SDS011;46919;45.816;3.104;2022-07-23T04:52:15;10.32;;;5.03;;
61038;SDS011;46919;45.816;3.104;2022-07-23T04:54:40;6.88;;;5.30;;
61038;SDS011;46919;45.816;3.104;2022-07-23T04:57:06;8.20;;;5.20;;
61038;SDS011;46919;45.816;3.104;2022-07-23T04:59:31;10.35;;;6.18;;
61038;SDS011;46919;45.816;3.104;2022-07-23T05:01:57;13.25;;;5.45;;
61038;SDS011;46919;45.816;3.104;2022-07-23T05:04:22;9.57;;;4.97;;
61038;SDS011;46919;45.816;3.104;2022-07-23T05:06:47;9.38;;;5.65;;
61038;SDS011;46919;45.816;3.104;2022-07-23T05:09:13;9.38;;;5.70;;
61038;SDS011;46919;45.816;3.104;2022-07-23T05:11:38;6.82;;;5.20;;
61038;SDS011;46919;45.816;3.104;2022-07-23T05:14:04;6.68;;;5.38;;
61038;SDS011;46919;45.816;3.104;2022-07-23T05:16:29;6.32;;;4.97;;
61038;SDS011;46919;45.816;3.104;2022-07-23T05:18:54;7.15;;;5.57;;
61038;SDS011;46919;45.816;3.104;2022-07-23T05:21:20;8.30;;;5.40;;
61038;SDS011;46919;45.816;3.104;2022-07-23T05:23:45;8.77;;;5.35;;
61038;SDS011;46919;45.816;3.104;2022-07-23T05:26:10;8.00;;;5.45;;
61038;SDS011;46919;45.816;3.104;2022-07-23T05:28:36;9.00;;;5.40;;
61038;SDS011;46919;45.816;3.104;2022-07-23T05:31:02;11.98;;;5.28;;
61038;SDS011;46919;45.816;3.104;2022-07-23T05:33:28;9.55;;;5.47;;
61038;SDS011;46919;45.816;3.104;2022-07-23T05:35:59;9.40;;;5.15;;
61038;SDS011;46919;45.816;3.104;2022-07-23T05:38:26;7.38;;;5.30;;
61038;SDS011;46919;45.816;3.104;2022-07-23T05:40:52;6.32;;;5.18;;
61038;SDS011;46919;45.816;3.104;2022-07-23T05:43:17;6.05;;;5.00;;
61038;SDS011;46919;45.816;3.104;2022-07-23T05:45:43;10.95;;;5.03;;
61038;SDS011;46919;45.816;3.104;2022-07-23T05:48:08;9.68;;;5.30;;
61038;SDS011;46919;45.816;3.104;2022-07-23T05:50:33;6.85;;;5.20;;
61038;SDS011;46919;45.816;3.104;2022-07-23T05:52:59;7.35;;;5.20;;
61038;SDS011;46919;45.816;3.104;2022-07-23T05:55:24;9.65;;;5.05;;
61038;SDS011;46919;45.816;3.104;2022-07-23T05:57:50;8.05;;;4.78;;
61038;SDS011;46919;45.816;3.104;2022-07-23T06:00:15;7.22;;;5.13;;
61038;SDS011;46919;45.816;3.104;2022-07-23T06:02:41;7.40;;;5.07;;
61038;SDS011;46919;45.816;3.104;2022-07-23T06:05:06;7.47;;;5.65;;
61038;SDS011;46919;45.816;3.104;2022-07-23T06:07:32;8.20;;;5.60;;
61038;SDS011;46919;45.816;3.104;2022-07-23T06:09:58;7.72;;;5.07;;
61038;SDS011;46919;45.816;3.104;2022-07-23T06:12:24;9.60;;;5.20;;
61038;SDS011;46919;45.816;3.104;2022-07-23T06:14:50;12.75;;;5.30;;
61038;SDS011;46919;45.816;3.104;2022-07-23T06:17:17;8.13;;;4.72;;
61038;SDS011;46919;45.816;3.104;2022-07-23T06:19:43;8.77;;;5.10;;
61038;SDS011;46919;45.816;3.104;2022-07-23T06:22:08;5.65;;;5.07;;
61038;SDS011;46919;45.816;3.104;2022-07-23T06:24:33;8.70;;;5.10;;
61038;SDS011;46919;45.816;3.104;2022-07-23T06:26:59;11.65;;;5.10;;
61038;SDS011;46919;45.816;3.104;2022-07-23T06:29:24;6.70;;;4.65;;
61038;SDS011;46919;45.816;3.104;2022-07-23T06:31:50;5.30;;;4.35;;
61038;SDS011;46919;45.816;3.104;2022-07-23T06:34:15;5.47;;;4.82;;
61038;SDS011;46919;45.816;3.104;2022-07-23T06:36:40;6.60;;;4.88;;
61038;SDS011;46919;45.816;3.104;2022-07-23T06:39:06;8.23;;;5.10;;
61038;SDS011;46919;45.816;3.104;2022-07-23T06:41:31;8.07;;;4.90;;
61038;SDS011;46919;45.816;3.104;2022-07-23T06:44:00;7.85;;;4.95;;
61038;SDS011;46919;45.816;3.104;2022-07-23T06:46:25;9.40;;;5.25;;
61038;SDS011;46919;45.816;3.104;2022-07-23T06:48:51;5.20;;;4.63;;
61038;SDS011;46919;45.816;3.104;2022-07-23T06:51:16;8.02;;;4.90;;
61038;SDS011;46919;45.816;3.104;2022-07-23T06:53:41;6.53;;;4.90;;
61038;SDS011;46919;45.816;3.104;2022-07-23T06:56:07;7.72;;;5.38;;
61038;SDS011;46919;45.816;3.104;2022-07-23T06:58:32;4.55;;;4.10;;
61038;SDS011;46919;45.816;3.104;2022-07-23T07:00:58;5.15;;;4.65;;
61038;SDS011;46919;45.816;3.104;2022-07-23T07:03:23;7.15;;;4.68;;
61038;SDS011;46919;45.816;3.104;2022-07-23T07:05:49;5.63;;;4.85;;
61038;SDS011;46919;45.816;3.104;2022-07-23T07:08:15;6.43;;;4.75;;
61038;SDS011;46919;45.816;3.104;2022-07-23T07:10:40;5.10;;;4.60;;
61038;SDS011;46919;45.816;3.104;2022-07-23T07:13:06;5.35;;;4.75;;
61038;SDS011;46919;45.816;3.104;2022-07-23T07:15:31;5.07;;;4.57;;
61038;SDS011;46919;45.816;3.104;2022-07-23T07:17:57;5.32;;;4.82;;
61038;SDS011;46919;45.816;3.104;2022-07-23T07:20:22;6.45;;;5.18;;
61038;SDS011;46919;45.816;3.104;2022-07-23T07:22:48;5.05;;;4.55;;
61038;SDS011;46919;45.816;3.104;2022-07-23T07:25:14;5.07;;;4.32;;
61038;SDS011;46919;45.816;3.104;2022-07-23T07:27:40;5.18;;;4.38;;
61038;SDS011;46919;45.816;3.104;2022-07-23T07:30:06;4.97;;;4.45;;
61038;SDS011;46919;45.816;3.104;2022-07-23T07:32:32;6.85;;;5.07;;
61038;SDS011;46919;45.816;3.104;2022-07-23T07:34:57;8.10;;;4.85;;
61038;SDS011;46919;45.816;3.104;2022-07-23T07:37:23;6.40;;;4.72;;
61038;SDS011;46919;45.816;3.104;2022-07-23T07:39:50;5.57;;;5.00;;
61038;SDS011;46919;45.816;3.104;2022-07-23T07:42:15;6.20;;;5.28;;
61038;SDS011;46919;45.816;3.104;2022-07-23T07:44:41;5.85;;;4.70;;
61038;SDS011;46919;45.816;3.104;2022-07-23T07:47:06;6.75;;;4.53;;
61038;SDS011;46919;45.816;3.104;2022-07-23T07:49:32;5.03;;;4.38;;
61038;SDS011;46919;45.816;3.104;2022-07-23T07:51:58;5.10;;;4.60;;
61038;SDS011;46919;45.816;3.104;2022-07-23T07:54:23;6.03;;;5.00;;
61038;SDS011;46919;45.816;3.104;2022-07-23T07:56:49;6.28;;;4.70;;
61038;SDS011;46919;45.816;3.104;2022-07-23T07:59:14;6.35;;;4.38;;
61038;SDS011;46919;45.816;3.104;2022-07-23T08:01:40;5.45;;;4.90;;
61038;SDS011;46919;45.816;3.104;2022-07-23T08:04:05;7.20;;;5.07;;
61038;SDS011;46919;45.816;3.104;2022-07-23T08:06:31;7.80;;;5.60;;
61038;SDS011;46919;45.816;3.104;2022-07-23T08:08:56;5.78;;;4.75;;
61038;SDS011;46919;45.816;3.104;2022-07-23T08:11:22;8.07;;;4.90;;
61038;SDS011;46919;45.816;3.104;2022-07-23T08:13:47;5.35;;;4.85;;
61038;SDS011;46919;45.816;3.104;2022-07-23T08:16:13;5.63;;;4.65;;
61038;SDS011;46919;45.816;3.104;2022-07-23T08:18:38;6.80;;;4.80;;
61038;SDS011;46919;45.816;3.104;2022-07-23T08:21:04;8.45;;;5.22;;
61038;SDS011;46919;45.816;3.104;2022-07-23T08:23:30;10.05;;;4.97;;
61038;SDS011;46919;45.816;3.104;2022-07-23T08:25:57;6.05;;;4.90;;
61038;SDS011;46919;45.816;3.104;2022-07-23T08:28:24;6.97;;;5.10;;
61038;SDS011;46919;45.816;3.104;2022-07-23T08:30:50;5.55;;;4.80;;
61038;SDS011;46919;45.816;3.104;2022-07-23T08:33:17;5.20;;;4.70;;
61038;SDS011;46919;45.816;3.104;2022-07-23T08:35:47;5.80;;;5.05;;
61038;SDS011;46919;45.816;3.104;2022-07-23T08:38:15;5.45;;;4.95;;
61038;SDS011;46919;45.816;3.104;2022-07-23T08:40:46;7.28;;;4.50;;
61038;SDS011;46919;45.816;3.104;2022-07-23T08:43:27;6.45;;;5.22;;
61038;SDS011;46919;45.816;3.104;2022-07-23T08:45:55;5.07;;;4.57;;
61038;SDS011;46919;45.816;3.104;2022-07-23T08:48:23;5.05;;;4.55;;
61038;SDS011;46919;45.816;3.104;2022-07-23T08:50:50;6.28;;;4.70;;
61038;SDS011;46919;45.816;3.104;2022-07-23T08:53:18;5.88;;;4.85;;
61038;SDS011;46919;45.816;3.104;2022-07-23T08:55:45;6.93;;;4.82;;
61038;SDS011;46919;45.816;3.104;2022-07-23T08:58:12;6.18;;;4.90;;
61038;SDS011;46919;45.816;3.104;2022-07-23T09:00:38;5.57;;;4.60;;
61038;SDS011;46919;45.816;3.104;2022-07-23T09:03:03;5.38;;;4.63;;
61038;SDS011;46919;45.816;3.104;2022-07-23T09:05:28;6.80;;;4.70;;
61038;SDS011;46919;45.816;3.104;2022-07-23T09:10:43;5.65;;;4.75;;
61038;SDS011;46919;45.816;3.104;2022-07-23T09:13:31;8.88;;;4.70;;
61038;SDS011;46919;45.816;3.104;2022-07-23T09:16:17;6.18;;;5.20;;
61038;SDS011;46919;45.816;3.104;2022-07-23T09:21:35;6.57;;;5.18;;
61038;SDS011;46919;45.816;3.104;2022-07-23T09:24:03;6.45;;;5.10;;
61038;SDS011;46919;45.816;3.104;2022-07-23T09:31:30;5.43;;;4.75;;
61038;SDS011;46919;45.816;3.104;2022-07-23T09:36:57;5.80;;;4.70;;
61038;SDS011;46919;45.816;3.104;2022-07-23T09:39:33;7.35;;;4.57;;
61038;SDS011;46919;45.816;3.104;2022-07-23T09:44:45;7.75;;;5.47;;
61038;SDS011;46919;45.816;3.104;2022-07-23T09:47:18;5.30;;;4.80;;
61038;SDS011;46919;45.816;3.104;2022-07-23T09:52:29;7.90;;;4.97;;
61038;SDS011;46919;45.816;3.104;2022-07-23T09:54:57;6.28;;;4.90;;
61038;SDS011;46919;45.816;3.104;2022-07-23T09:57:24;6.72;;;5.10;;
61038;SDS011;46919;45.816;3.104;2022-07-23T09:59:51;5.97;;;4.88;;
61038;SDS011;46919;45.816;3.104;2022-07-23T10:02:17;5.50;;;5.03;;
61038;SDS011;46919;45.816;3.104;2022-07-23T10:04:44;7.55;;;5.70;;
61038;SDS011;46919;45.816;3.104;2022-07-23T10:07:11;6.03;;;4.72;;
61038;SDS011;46919;45.816;3.104;2022-07-23T10:09:41;7.18;;;5.57;;
61038;SDS011;46919;45.816;3.104;2022-07-23T10:12:11;6.35;;;4.93;;
61038;SDS011;46919;45.816;3.104;2022-07-23T10:14:45;5.32;;;4.88;;
61038;SDS011;46919;45.816;3.104;2022-07-23T10:17:11;5.93;;;5.22;;
61038;SDS011;46919;45.816;3.104;2022-07-23T10:19:36;6.80;;;5.30;;
61038;SDS011;46919;45.816;3.104;2022-07-23T10:22:13;6.50;;;4.97;;
61038;SDS011;46919;45.816;3.104;2022-07-23T10:30:04;5.43;;;4.80;;
61038;SDS011;46919;45.816;3.104;2022-07-23T10:38:24;7.20;;;5.40;;
61038;SDS011;46919;45.816;3.104;2022-07-23T10:40:58;6.95;;;5.50;;
61038;SDS011;46919;45.816;3.104;2022-07-23T10:43:28;6.07;;;5.45;;
61038;SDS011;46919;45.816;3.104;2022-07-23T10:45:54;5.68;;;5.18;;
61038;SDS011;46919;45.816;3.104;2022-07-23T10:48:23;5.47;;;4.90;;
61038;SDS011;46919;45.816;3.104;2022-07-23T10:51:10;5.53;;;5.03;;
61038;SDS011;46919;45.816;3.104;2022-07-23T10:56:46;5.03;;;4.53;;
61038;SDS011;46919;45.816;3.104;2022-07-23T10:59:23;5.65;;;5.00;;
61038;SDS011;46919;45.816;3.104;2022-07-23T11:01:49;6.40;;;4.72;;
61038;SDS011;46919;45.816;3.104;2022-07-23T11:04:15;5.35;;;4.65;;
61038;SDS011;46919;45.816;3.104;2022-07-23T11:07:26;5.63;;;4.72;;
61038;SDS011;46919;45.816;3.104;2022-07-23T11:09:39;5.85;;;4.47;;
61038;SDS011;46919;45.816;3.104;2022-07-23T11:17:25;5.07;;;4.60;;
61038;SDS011;46919;45.816;3.104;2022-07-23T11:22:52;5.50;;;4.55;;
61038;SDS011;46919;45.816;3.104;2022-07-23T11:27:50;5.68;;;4.90;;
61038;SDS011;46919;45.816;3.104;2022-07-23T11:32:51;4.78;;;4.32;;
61038;SDS011;46919;45.816;3.104;2022-07-23T11:35:18;4.82;;;4.43;;
61038;SDS011;46919;45.816;3.104;2022-07-23T11:37:44;5.68;;;4.85;;
61038;SDS011;46919;45.816;3.104;2022-07-23T11:40:12;5.95;;;4.72;;
61038;SDS011;46919;45.816;3.104;2022-07-23T11:42:39;5.93;;;4.70;;
61038;SDS011;46919;45.816;3.104;2022-07-23T11:45:16;7.03;;;5.75;;
61038;SDS011;46919;45.816;3.104;2022-07-23T11:47:41;6.30;;;4.63;;
61038;SDS011;46919;45.816;3.104;2022-07-23T11:50:07;5.45;;;4.63;;
61038;SDS011;46919;45.816;3.104;2022-07-23T11:52:32;5.38;;;4.88;;
61038;SDS011;46919;45.816;3.104;2022-07-23T11:55:00;5.25;;;4.68;;
61038;SDS011;46919;45.816;3.104;2022-07-23T11:57:31;5.93;;;4.70;;
61038;SDS011;46919;45.816;3.104;2022-07-23T12:00:12;6.13;;;4.82;;
61038;SDS011;46919;45.816;3.104;2022-07-23T12:02:41;5.47;;;4.70;;
61038;SDS011;46919;45.816;3.104;2022-07-23T12:05:10;5.43;;;4.43;;
61038;SDS011;46919;45.816;3.104;2022-07-23T12:07:39;5.18;;;4.65;;
61038;SDS011;46919;45.816;3.104;2022-07-23T12:12:49;7.00;;;4.80;;
61038;SDS011;46919;45.816;3.104;2022-07-23T12:15:17;5.00;;;4.50;;
61038;SDS011;46919;45.816;3.104;2022-07-23T12:17:45;5.05;;;4.20;;
61038;SDS011;46919;45.816;3.104;2022-07-23T12:20:13;6.10;;;4.90;;
61038;SDS011;46919;45.816;3.104;2022-07-23T12:22:42;4.85;;;4.22;;
61038;SDS011;46919;45.816;3.104;2022-07-23T12:25:17;4.90;;;4.40;;
61038;SDS011;46919;45.816;3.104;2022-07-23T12:27:44;4.90;;;4.40;;
61038;SDS011;46919;45.816;3.104;2022-07-23T12:30:18;5.22;;;4.00;;
61038;SDS011;46919;45.816;3.104;2022-07-23T12:32:52;4.57;;;4.18;;
61038;SDS011;46919;45.816;3.104;2022-07-23T12:35:20;4.65;;;4.05;;
61038;SDS011;46919;45.816;3.104;2022-07-23T12:37:47;7.57;;;4.72;;
61038;SDS011;46919;45.816;3.104;2022-07-23T12:43:00;4.50;;;4.13;;
61038;SDS011;46919;45.816;3.104;2022-07-23T12:50:50;4.95;;;4.40;;
61038;SDS011;46919;45.816;3.104;2022-07-23T12:53:25;10.13;;;4.57;;
61038;SDS011;46919;45.816;3.104;2022-07-23T12:55:59;8.07;;;4.18;;
61038;SDS011;46919;45.816;3.104;2022-07-23T12:59:30;6.43;;;4.13;;
61038;SDS011;46919;45.816;3.104;2022-07-23T13:01:41;6.30;;;4.47;;
61038;SDS011;46919;45.816;3.104;2022-07-23T13:04:09;5.80;;;4.30;;
61038;SDS011;46919;45.816;3.104;2022-07-23T13:06:58;5.38;;;4.53;;
61038;SDS011;46919;45.816;3.104;2022-07-23T13:09:28;5.50;;;4.20;;
61038;SDS011;46919;45.816;3.104;2022-07-23T13:11:55;6.15;;;4.47;;
61038;SDS011;46919;45.816;3.104;2022-07-23T13:14:21;7.57;;;4.38;;
61038;SDS011;46919;45.816;3.104;2022-07-23T13:16:49;5.63;;;4.65;;
61038;SDS011;46919;45.816;3.104;2022-07-23T13:19:15;4.72;;;4.32;;
61038;SDS011;46919;45.816;3.104;2022-07-23T13:21:42;5.72;;;4.43;;
61038;SDS011;46919;45.816;3.104;2022-07-23T13:24:08;4.78;;;4.38;;
61038;SDS011;46919;45.816;3.104;2022-07-23T13:26:34;5.75;;;3.80;;
61038;SDS011;46919;45.816;3.104;2022-07-23T13:29:01;5.22;;;4.18;;
61038;SDS011;46919;45.816;3.104;2022-07-23T13:31:26;4.28;;;3.88;;
61038;SDS011;46919;45.816;3.104;2022-07-23T13:33:52;5.57;;;4.22;;
61038;SDS011;46919;45.816;3.104;2022-07-23T13:36:17;4.22;;;3.63;;
61038;SDS011;46919;45.816;3.104;2022-07-23T13:38:43;4.75;;;4.10;;
61038;SDS011;46919;45.816;3.104;2022-07-23T13:41:10;5.00;;;3.90;;
61038;SDS011;46919;45.816;3.104;2022-07-23T13:43:35;4.65;;;4.18;;
61038;SDS011;46919;45.816;3.104;2022-07-23T13:46:01;5.30;;;3.97;;
61038;SDS011;46919;45.816;3.104;2022-07-23T13:48:27;4.57;;;3.63;;
61038;SDS011;46919;45.816;3.104;2022-07-23T13:50:53;4.72;;;3.90;;
61038;SDS011;46919;45.816;3.104;2022-07-23T13:53:20;4.40;;;4.00;;
61038;SDS011;46919;45.816;3.104;2022-07-23T13:55:48;3.92;;;3.53;;
61038;SDS011;46919;45.816;3.104;2022-07-23T13:58:14;4.28;;;3.88;;
61038;SDS011;46919;45.816;3.104;2022-07-23T14:00:42;4.47;;;4.07;;
61038;SDS011;46919;45.816;3.104;2022-07-23T14:03:10;5.05;;;4.30;;
61038;SDS011;46919;45.816;3.104;2022-07-23T14:05:35;6.38;;;4.38;;
61038;SDS011;46919;45.816;3.104;2022-07-23T14:08:01;6.85;;;4.40;;
61038;SDS011;46919;45.816;3.104;2022-07-23T14:10:28;4.68;;;4.28;;
61038;SDS011;46919;45.816;3.104;2022-07-23T14:12:54;5.57;;;4.43;;
61038;SDS011;46919;45.816;3.104;2022-07-23T14:15:21;5.07;;;4.57;;
61038;SDS011;46919;45.816;3.104;2022-07-23T14:17:47;5.03;;;4.53;;
61038;SDS011;46919;45.816;3.104;2022-07-23T14:20:13;5.60;;;4.38;;
61038;SDS011;46919;45.816;3.104;2022-07-23T14:22:39;4.78;;;4.30;;
61038;SDS011;46919;45.816;3.104;2022-07-23T14:25:05;5.47;;;4.20;;
61038;SDS011;46919;45.816;3.104;2022-07-23T14:27:32;5.32;;;4.22;;
61038;SDS011;46919;45.816;3.104;2022-07-23T14:29:58;4.45;;;4.05;;
61038;SDS011;46919;45.816;3.104;2022-07-23T14:32:24;5.50;;;3.88;;
61038;SDS011;46919;45.816;3.104;2022-07-23T14:34:50;4.53;;;4.00;;
61038;SDS011;46919;45.816;3.104;2022-07-23T14:37:16;4.53;;;3.47;;
61038;SDS011;46919;45.816;3.104;2022-07-23T14:39:42;4.93;;;3.70;;
61038;SDS011;46919;45.816;3.104;2022-07-23T14:42:10;5.07;;;3.95;;
61038;SDS011;46919;45.816;3.104;2022-07-23T14:44:36;4.60;;;4.15;;
61038;SDS011;46919;45.816;3.104;2022-07-23T14:47:02;5.78;;;4.15;;
61038;SDS011;46919;45.816;3.104;2022-07-23T14:49:30;4.78;;;4.03;;
61038;SDS011;46919;45.816;3.104;2022-07-23T14:51:56;5.38;;;4.38;;
61038;SDS011;46919;45.816;3.104;2022-07-23T14:54:22;5.78;;;4.15;;
61038;SDS011;46919;45.816;3.104;2022-07-23T14:56:48;5.90;;;4.20;;
61038;SDS011;46919;45.816;3.104;2022-07-23T14:59:14;5.15;;;3.90;;
61038;SDS011;46919;45.816;3.104;2022-07-23T15:01:39;5.13;;;4.35;;
61038;SDS011;46919;45.816;3.104;2022-07-23T15:04:05;4.63;;;4.03;;
61038;SDS011;46919;45.816;3.104;2022-07-23T15:06:31;5.05;;;4.20;;
61038;SDS011;46919;45.816;3.104;2022-07-23T15:08:57;5.38;;;4.30;;
61038;SDS011;46919;45.816;3.104;2022-07-23T15:11:25;4.78;;;3.78;;
61038;SDS011;46919;45.816;3.104;2022-07-23T15:13:51;4.70;;;4.10;;
61038;SDS011;46919;45.816;3.104;2022-07-23T15:16:17;5.15;;;4.20;;
61038;SDS011;46919;45.816;3.104;2022-07-23T15:18:42;5.05;;;4.53;;
61038;SDS011;46919;45.816;3.104;2022-07-23T15:21:07;6.05;;;4.47;;
61038;SDS011;46919;45.816;3.104;2022-07-23T15:23:33;4.78;;;4.28;;
61038;SDS011;46919;45.816;3.104;2022-07-23T15:26:00;5.45;;;4.03;;
61038;SDS011;46919;45.816;3.104;2022-07-23T15:28:25;5.03;;;4.30;;
61038;SDS011;46919;45.816;3.104;2022-07-23T15:30:51;4.60;;;4.20;;
61038;SDS011;46919;45.816;3.104;2022-07-23T15:33:17;4.43;;;4.03;;
61038;SDS011;46919;45.816;3.104;2022-07-23T15:35:43;4.10;;;3.80;;
61038;SDS011;46919;45.816;3.104;2022-07-23T15:38:08;7.30;;;4.53;;
61038;SDS011;46919;45.816;3.104;2022-07-23T15:40:34;5.78;;;4.00;;